sensor_id;sensor_type;location;lat;lon;timestamp;P1;durP1;ratioP1;P2;durP2;ratioP2
51714;SDS011;39115;59.332;18.034;2024-03-29T00:00:06;2.55;;;2.35;;
51714;SDS011;39115;59.332;18.034;2024-03-29T00:02:28;1.73;;;1.63;;
51714;SDS011;39115;59.332;18.034;2024-03-29T00:04:48;2.45;;;1.55;;
51714;SDS011;39115;59.332;18.034;2024-03-29T00:07:09;1.65;;;1.55;;
51714;SDS011;39115;59.332;18.034;2024-03-29T00:09:30;2.60;;;1.80;;
51714;SDS011;39115;59.332;18.034;2024-03-29T00:11:50;2.03;;;1.80;;
51714;SDS011;39115;59.332;18.034;2024-03-29T00:14:11;2.20;;;1.65;;
51714;SDS011;39115;59.332;18.034;2024-03-29T00:16:32;2.05;;;1.90;;
51714;SDS011;39115;59.332;18.034;2024-03-29T00:18:53;1.55;;;1.45;;
51714;SDS011;39115;59.332;18.034;2024-03-29T00:21:13;1.77;;;1.67;;
51714;SDS011;39115;59.332;18.034;2024-03-29T00:23:34;1.52;;;1.38;;
51714;SDS011;39115;59.332;18.034;2024-03-29T00:25:55;2.80;;;2.22;;
51714;SDS011;39115;59.332;18.034;2024-03-29T00:28:18;2.33;;;1.83;;
51714;SDS011;39115;59.332;18.034;2024-03-29T00:30:38;2.28;;;1.70;;
51714;SDS011;39115;59.332;18.034;2024-03-29T00:32:59;2.90;;;1.70;;
51714;SDS011;39115;59.332;18.034;2024-03-29T00:35:20;1.67;;;1.58;;
51714;SDS011;39115;59.332;18.034;2024-03-29T00:37:42;2.45;;;1.90;;
51714;SDS011;39115;59.332;18.034;2024-03-29T00:40:03;1.65;;;1.52;;
51714;SDS011;39115;59.332;18.034;2024-03-29T00:42:24;1.80;;;1.70;;
51714;SDS011;39115;59.332;18.034;2024-03-29T00:44:45;2.03;;;1.70;;
51714;SDS011;39115;59.332;18.034;2024-03-29T00:47:06;1.95;;;1.48;;
51714;SDS011;39115;59.332;18.034;2024-03-29T00:49:26;1.48;;;1.38;;
51714;SDS011;39115;59.332;18.034;2024-03-29T00:51:47;2.10;;;1.90;;
51714;SDS011;39115;59.332;18.034;2024-03-29T00:54:08;1.90;;;1.80;;
51714;SDS011;39115;59.332;18.034;2024-03-29T00:56:28;2.58;;;1.85;;
51714;SDS011;39115;59.332;18.034;2024-03-29T00:58:49;3.38;;;1.70;;
51714;SDS011;39115;59.332;18.034;2024-03-29T01:01:10;1.95;;;1.58;;
51714;SDS011;39115;59.332;18.034;2024-03-29T01:03:30;1.75;;;1.45;;
51714;SDS011;39115;59.332;18.034;2024-03-29T01:05:51;2.22;;;1.92;;
51714;SDS011;39115;59.332;18.034;2024-03-29T01:08:12;2.67;;;1.70;;
51714;SDS011;39115;59.332;18.034;2024-03-29T01:10:32;1.73;;;1.50;;
51714;SDS011;39115;59.332;18.034;2024-03-29T01:12:53;2.70;;;1.52;;
51714;SDS011;39115;59.332;18.034;2024-03-29T01:15:14;2.95;;;1.80;;
51714;SDS011;39115;59.332;18.034;2024-03-29T01:17:35;1.63;;;1.45;;
51714;SDS011;39115;59.332;18.034;2024-03-29T01:19:55;1.83;;;1.65;;
51714;SDS011;39115;59.332;18.034;2024-03-29T01:22:16;1.77;;;1.52;;
51714;SDS011;39115;59.332;18.034;2024-03-29T01:24:37;2.00;;;1.60;;
51714;SDS011;39115;59.332;18.034;2024-03-29T01:26:57;2.95;;;1.85;;
51714;SDS011;39115;59.332;18.034;2024-03-29T01:29:19;1.90;;;1.80;;
51714;SDS011;39115;59.332;18.034;2024-03-29T01:31:39;1.60;;;1.50;;
51714;SDS011;39115;59.332;18.034;2024-03-29T01:34:00;2.55;;;2.05;;
51714;SDS011;39115;59.332;18.034;2024-03-29T01:36:22;2.35;;;2.00;;
51714;SDS011;39115;59.332;18.034;2024-03-29T01:38:43;2.65;;;1.60;;
51714;SDS011;39115;59.332;18.034;2024-03-29T01:41:05;2.47;;;1.90;;
51714;SDS011;39115;59.332;18.034;2024-03-29T01:43:27;2.42;;;1.88;;
51714;SDS011;39115;59.332;18.034;2024-03-29T01:45:48;2.15;;;1.70;;
51714;SDS011;39115;59.332;18.034;2024-03-29T01:48:11;1.98;;;1.60;;
51714;SDS011;39115;59.332;18.034;2024-03-29T01:50:32;2.22;;;1.95;;
51714;SDS011;39115;59.332;18.034;2024-03-29T01:52:54;3.40;;;1.92;;
51714;SDS011;39115;59.332;18.034;2024-03-29T01:55:15;2.03;;;1.80;;
51714;SDS011;39115;59.332;18.034;2024-03-29T01:57:36;2.28;;;2.08;;
51714;SDS011;39115;59.332;18.034;2024-03-29T01:59:56;1.80;;;1.55;;
51714;SDS011;39115;59.332;18.034;2024-03-29T02:02:18;1.83;;;1.50;;
51714;SDS011;39115;59.332;18.034;2024-03-29T02:04:38;1.83;;;1.60;;
51714;SDS011;39115;59.332;18.034;2024-03-29T02:07:00;1.70;;;1.40;;
51714;SDS011;39115;59.332;18.034;2024-03-29T02:09:21;2.47;;;1.55;;
51714;SDS011;39115;59.332;18.034;2024-03-29T02:11:41;1.38;;;1.27;;
51714;SDS011;39115;59.332;18.034;2024-03-29T02:14:02;2.20;;;2.00;;
51714;SDS011;39115;59.332;18.034;2024-03-29T02:16:23;2.08;;;1.67;;
51714;SDS011;39115;59.332;18.034;2024-03-29T02:18:44;2.40;;;1.92;;
51714;SDS011;39115;59.332;18.034;2024-03-29T02:21:04;1.95;;;1.33;;
51714;SDS011;39115;59.332;18.034;2024-03-29T02:23:26;1.55;;;1.30;;
51714;SDS011;39115;59.332;18.034;2024-03-29T02:25:48;2.40;;;1.80;;
51714;SDS011;39115;59.332;18.034;2024-03-29T02:28:08;2.35;;;1.60;;
51714;SDS011;39115;59.332;18.034;2024-03-29T02:30:29;1.73;;;1.63;;
51714;SDS011;39115;59.332;18.034;2024-03-29T02:32:50;2.25;;;2.00;;
51714;SDS011;39115;59.332;18.034;2024-03-29T02:35:11;1.60;;;1.50;;
51714;SDS011;39115;59.332;18.034;2024-03-29T02:37:32;2.80;;;1.60;;
51714;SDS011;39115;59.332;18.034;2024-03-29T02:39:53;2.97;;;1.92;;
51714;SDS011;39115;59.332;18.034;2024-03-29T02:42:13;2.42;;;1.70;;
51714;SDS011;39115;59.332;18.034;2024-03-29T02:44:34;2.40;;;1.75;;
51714;SDS011;39115;59.332;18.034;2024-03-29T02:46:54;1.58;;;1.42;;
51714;SDS011;39115;59.332;18.034;2024-03-29T02:49:15;2.28;;;1.48;;
51714;SDS011;39115;59.332;18.034;2024-03-29T02:51:36;1.50;;;1.30;;
51714;SDS011;39115;59.332;18.034;2024-03-29T02:53:56;1.90;;;1.70;;
51714;SDS011;39115;59.332;18.034;2024-03-29T02:56:17;2.25;;;1.40;;
51714;SDS011;39115;59.332;18.034;2024-03-29T02:58:41;2.00;;;1.60;;
51714;SDS011;39115;59.332;18.034;2024-03-29T03:01:05;2.00;;;1.75;;
51714;SDS011;39115;59.332;18.034;2024-03-29T03:03:29;2.03;;;1.10;;
51714;SDS011;39115;59.332;18.034;2024-03-29T03:05:50;1.50;;;1.40;;
51714;SDS011;39115;59.332;18.034;2024-03-29T03:08:12;1.38;;;1.25;;
51714;SDS011;39115;59.332;18.034;2024-03-29T03:10:51;2.58;;;1.70;;
51714;SDS011;39115;59.332;18.034;2024-03-29T03:13:21;1.70;;;1.60;;
51714;SDS011;39115;59.332;18.034;2024-03-29T03:15:41;1.58;;;1.48;;
51714;SDS011;39115;59.332;18.034;2024-03-29T03:18:02;1.77;;;1.60;;
51714;SDS011;39115;59.332;18.034;2024-03-29T03:20:22;1.83;;;1.35;;
51714;SDS011;39115;59.332;18.034;2024-03-29T03:22:48;1.95;;;1.40;;
51714;SDS011;39115;59.332;18.034;2024-03-29T03:25:11;1.70;;;1.33;;
51714;SDS011;39115;59.332;18.034;2024-03-29T03:27:32;1.88;;;1.60;;
51714;SDS011;39115;59.332;18.034;2024-03-29T03:29:52;1.77;;;1.55;;
51714;SDS011;39115;59.332;18.034;2024-03-29T03:32:13;4.10;;;1.77;;
51714;SDS011;39115;59.332;18.034;2024-03-29T03:34:34;1.65;;;1.25;;
51714;SDS011;39115;59.332;18.034;2024-03-29T03:36:55;2.78;;;1.60;;
51714;SDS011;39115;59.332;18.034;2024-03-29T03:39:15;2.38;;;1.55;;
51714;SDS011;39115;59.332;18.034;2024-03-29T03:41:36;1.50;;;1.27;;
51714;SDS011;39115;59.332;18.034;2024-03-29T03:43:57;1.65;;;1.30;;
51714;SDS011;39115;59.332;18.034;2024-03-29T03:46:17;1.92;;;1.60;;
51714;SDS011;39115;59.332;18.034;2024-03-29T03:48:38;1.77;;;1.40;;
51714;SDS011;39115;59.332;18.034;2024-03-29T03:50:59;1.85;;;1.30;;
51714;SDS011;39115;59.332;18.034;2024-03-29T03:53:19;1.15;;;0.95;;
51714;SDS011;39115;59.332;18.034;2024-03-29T03:55:40;1.67;;;1.50;;
51714;SDS011;39115;59.332;18.034;2024-03-29T03:58:01;1.48;;;1.38;;
51714;SDS011;39115;59.332;18.034;2024-03-29T04:00:22;1.88;;;1.73;;
51714;SDS011;39115;59.332;18.034;2024-03-29T04:02:46;1.35;;;1.25;;
51714;SDS011;39115;59.332;18.034;2024-03-29T04:05:08;1.92;;;1.60;;
51714;SDS011;39115;59.332;18.034;2024-03-29T04:07:29;2.08;;;1.30;;
51714;SDS011;39115;59.332;18.034;2024-03-29T04:09:52;1.30;;;1.20;;
51714;SDS011;39115;59.332;18.034;2024-03-29T04:12:13;1.45;;;1.35;;
51714;SDS011;39115;59.332;18.034;2024-03-29T04:14:34;1.30;;;1.17;;
51714;SDS011;39115;59.332;18.034;2024-03-29T04:16:55;1.75;;;1.40;;
51714;SDS011;39115;59.332;18.034;2024-03-29T04:19:16;1.90;;;1.38;;
51714;SDS011;39115;59.332;18.034;2024-03-29T04:21:36;1.60;;;1.30;;
51714;SDS011;39115;59.332;18.034;2024-03-29T04:23:57;1.90;;;1.77;;
51714;SDS011;39115;59.332;18.034;2024-03-29T04:26:18;2.65;;;1.70;;
51714;SDS011;39115;59.332;18.034;2024-03-29T04:28:39;1.42;;;1.30;;
51714;SDS011;39115;59.332;18.034;2024-03-29T04:31:00;1.60;;;1.27;;
51714;SDS011;39115;59.332;18.034;2024-03-29T04:33:21;1.95;;;1.20;;
51714;SDS011;39115;59.332;18.034;2024-03-29T04:35:57;1.95;;;1.70;;
51714;SDS011;39115;59.332;18.034;2024-03-29T04:38:20;0.93;;;0.77;;
51714;SDS011;39115;59.332;18.034;2024-03-29T04:40:40;1.50;;;1.40;;
51714;SDS011;39115;59.332;18.034;2024-03-29T04:43:01;2.03;;;1.63;;
51714;SDS011;39115;59.332;18.034;2024-03-29T04:45:22;1.40;;;1.30;;
51714;SDS011;39115;59.332;18.034;2024-03-29T04:47:42;1.60;;;1.50;;
51714;SDS011;39115;59.332;18.034;2024-03-29T04:50:03;1.42;;;1.33;;
51714;SDS011;39115;59.332;18.034;2024-03-29T04:52:24;2.50;;;1.65;;
51714;SDS011;39115;59.332;18.034;2024-03-29T04:54:46;1.73;;;1.52;;
51714;SDS011;39115;59.332;18.034;2024-03-29T04:57:07;1.30;;;1.20;;
51714;SDS011;39115;59.332;18.034;2024-03-29T04:59:28;1.38;;;1.20;;
51714;SDS011;39115;59.332;18.034;2024-03-29T05:01:48;1.80;;;1.17;;
51714;SDS011;39115;59.332;18.034;2024-03-29T05:04:13;1.85;;;1.67;;
51714;SDS011;39115;59.332;18.034;2024-03-29T05:06:37;2.38;;;1.95;;
51714;SDS011;39115;59.332;18.034;2024-03-29T05:08:57;1.50;;;1.20;;
51714;SDS011;39115;59.332;18.034;2024-03-29T05:11:19;1.85;;;1.60;;
51714;SDS011;39115;59.332;18.034;2024-03-29T05:13:40;1.92;;;1.10;;
51714;SDS011;39115;59.332;18.034;2024-03-29T05:16:00;2.10;;;1.80;;
51714;SDS011;39115;59.332;18.034;2024-03-29T05:18:21;1.60;;;1.40;;
51714;SDS011;39115;59.332;18.034;2024-03-29T05:20:42;2.17;;;1.67;;
51714;SDS011;39115;59.332;18.034;2024-03-29T05:23:07;1.63;;;1.20;;
51714;SDS011;39115;59.332;18.034;2024-03-29T05:25:28;1.48;;;1.25;;
51714;SDS011;39115;59.332;18.034;2024-03-29T05:27:48;1.65;;;1.30;;
51714;SDS011;39115;59.332;18.034;2024-03-29T05:30:09;2.00;;;1.60;;
51714;SDS011;39115;59.332;18.034;2024-03-29T05:32:30;1.80;;;1.65;;
51714;SDS011;39115;59.332;18.034;2024-03-29T05:34:52;1.30;;;1.20;;
51714;SDS011;39115;59.332;18.034;2024-03-29T05:37:12;1.85;;;1.50;;
51714;SDS011;39115;59.332;18.034;2024-03-29T05:39:36;0.90;;;0.90;;
51714;SDS011;39115;59.332;18.034;2024-03-29T05:41:56;1.52;;;1.42;;
51714;SDS011;39115;59.332;18.034;2024-03-29T05:44:18;1.67;;;1.58;;
51714;SDS011;39115;59.332;18.034;2024-03-29T05:46:38;1.30;;;1.20;;
51714;SDS011;39115;59.332;18.034;2024-03-29T05:49:00;1.38;;;1.02;;
51714;SDS011;39115;59.332;18.034;2024-03-29T05:51:21;1.33;;;1.23;;
51714;SDS011;39115;59.332;18.034;2024-03-29T05:53:41;1.40;;;1.08;;
51714;SDS011;39115;59.332;18.034;2024-03-29T05:56:02;1.35;;;1.20;;
51714;SDS011;39115;59.332;18.034;2024-03-29T05:58:23;1.30;;;1.10;;
51714;SDS011;39115;59.332;18.034;2024-03-29T06:00:44;1.10;;;1.00;;
51714;SDS011;39115;59.332;18.034;2024-03-29T06:03:05;1.25;;;1.15;;
51714;SDS011;39115;59.332;18.034;2024-03-29T06:05:26;1.80;;;1.58;;
51714;SDS011;39115;59.332;18.034;2024-03-29T06:07:46;1.60;;;1.50;;
51714;SDS011;39115;59.332;18.034;2024-03-29T06:10:07;1.67;;;1.10;;
51714;SDS011;39115;59.332;18.034;2024-03-29T06:12:29;1.20;;;1.10;;
51714;SDS011;39115;59.332;18.034;2024-03-29T06:14:51;1.25;;;1.15;;
51714;SDS011;39115;59.332;18.034;2024-03-29T06:17:30;1.95;;;1.20;;
51714;SDS011;39115;59.332;18.034;2024-03-29T06:19:51;1.42;;;1.17;;
51714;SDS011;39115;59.332;18.034;2024-03-29T06:22:17;1.30;;;1.20;;
51714;SDS011;39115;59.332;18.034;2024-03-29T06:24:38;1.38;;;0.90;;
51714;SDS011;39115;59.332;18.034;2024-03-29T06:26:59;1.35;;;1.25;;
51714;SDS011;39115;59.332;18.034;2024-03-29T06:29:20;0.70;;;0.70;;
51714;SDS011;39115;59.332;18.034;2024-03-29T06:31:41;1.65;;;1.35;;
51714;SDS011;39115;59.332;18.034;2024-03-29T06:34:01;1.60;;;1.50;;
51714;SDS011;39115;59.332;18.034;2024-03-29T06:36:22;1.38;;;0.90;;
51714;SDS011;39115;59.332;18.034;2024-03-29T06:38:43;1.20;;;1.10;;
51714;SDS011;39115;59.332;18.034;2024-03-29T06:41:04;1.70;;;1.40;;
51714;SDS011;39115;59.332;18.034;2024-03-29T06:43:25;1.10;;;1.00;;
51714;SDS011;39115;59.332;18.034;2024-03-29T06:45:45;1.35;;;1.02;;
51714;SDS011;39115;59.332;18.034;2024-03-29T06:48:06;1.30;;;1.20;;
51714;SDS011;39115;59.332;18.034;2024-03-29T06:50:27;1.25;;;1.10;;
51714;SDS011;39115;59.332;18.034;2024-03-29T06:52:47;2.40;;;1.20;;
51714;SDS011;39115;59.332;18.034;2024-03-29T06:55:08;1.63;;;1.35;;
51714;SDS011;39115;59.332;18.034;2024-03-29T06:57:30;1.30;;;1.20;;
51714;SDS011;39115;59.332;18.034;2024-03-29T06:59:51;1.88;;;1.40;;
51714;SDS011;39115;59.332;18.034;2024-03-29T07:02:12;1.02;;;0.93;;
51714;SDS011;39115;59.332;18.034;2024-03-29T07:04:33;1.42;;;1.20;;
51714;SDS011;39115;59.332;18.034;2024-03-29T07:06:54;1.85;;;1.15;;
51714;SDS011;39115;59.332;18.034;2024-03-29T07:09:14;1.15;;;1.02;;
51714;SDS011;39115;59.332;18.034;2024-03-29T07:11:35;1.27;;;1.17;;
51714;SDS011;39115;59.332;18.034;2024-03-29T07:13:56;1.20;;;1.10;;
51714;SDS011;39115;59.332;18.034;2024-03-29T07:16:17;1.40;;;1.17;;
51714;SDS011;39115;59.332;18.034;2024-03-29T07:18:37;0.98;;;0.88;;
51714;SDS011;39115;59.332;18.034;2024-03-29T07:20:58;1.30;;;0.95;;
51714;SDS011;39115;59.332;18.034;2024-03-29T07:23:19;1.20;;;1.02;;
51714;SDS011;39115;59.332;18.034;2024-03-29T07:25:40;1.40;;;1.30;;
51714;SDS011;39115;59.332;18.034;2024-03-29T07:28:01;1.48;;;1.10;;
51714;SDS011;39115;59.332;18.034;2024-03-29T07:30:22;1.23;;;1.10;;
51714;SDS011;39115;59.332;18.034;2024-03-29T07:32:43;0.98;;;0.88;;
51714;SDS011;39115;59.332;18.034;2024-03-29T07:35:04;1.15;;;1.05;;
51714;SDS011;39115;59.332;18.034;2024-03-29T07:37:25;1.48;;;1.05;;
51714;SDS011;39115;59.332;18.034;2024-03-29T07:39:46;2.33;;;1.52;;
51714;SDS011;39115;59.332;18.034;2024-03-29T07:42:07;2.15;;;1.30;;
51714;SDS011;39115;59.332;18.034;2024-03-29T07:44:28;1.10;;;0.85;;
51714;SDS011;39115;59.332;18.034;2024-03-29T07:46:49;1.27;;;1.00;;
51714;SDS011;39115;59.332;18.034;2024-03-29T07:49:09;1.42;;;1.10;;
51714;SDS011;39115;59.332;18.034;2024-03-29T07:51:30;1.40;;;1.00;;
51714;SDS011;39115;59.332;18.034;2024-03-29T07:53:51;1.13;;;1.02;;
51714;SDS011;39115;59.332;18.034;2024-03-29T07:56:12;1.20;;;1.10;;
51714;SDS011;39115;59.332;18.034;2024-03-29T07:58:33;1.33;;;1.23;;
51714;SDS011;39115;59.332;18.034;2024-03-29T08:00:53;1.20;;;1.10;;
51714;SDS011;39115;59.332;18.034;2024-03-29T08:03:14;1.85;;;1.20;;
51714;SDS011;39115;59.332;18.034;2024-03-29T08:05:35;1.20;;;1.08;;
51714;SDS011;39115;59.332;18.034;2024-03-29T08:07:56;1.08;;;0.90;;
51714;SDS011;39115;59.332;18.034;2024-03-29T08:10:17;1.02;;;0.93;;
51714;SDS011;39115;59.332;18.034;2024-03-29T08:12:38;1.00;;;0.90;;
51714;SDS011;39115;59.332;18.034;2024-03-29T08:14:58;1.25;;;1.10;;
51714;SDS011;39115;59.332;18.034;2024-03-29T08:17:19;0.95;;;0.85;;
51714;SDS011;39115;59.332;18.034;2024-03-29T08:19:40;1.83;;;0.88;;
51714;SDS011;39115;59.332;18.034;2024-03-29T08:22:01;1.08;;;0.80;;
51714;SDS011;39115;59.332;18.034;2024-03-29T08:24:22;1.42;;;0.90;;
51714;SDS011;39115;59.332;18.034;2024-03-29T08:26:43;0.88;;;0.82;;
51714;SDS011;39115;59.332;18.034;2024-03-29T08:29:04;1.00;;;0.90;;
51714;SDS011;39115;59.332;18.034;2024-03-29T08:31:25;1.35;;;1.10;;
51714;SDS011;39115;59.332;18.034;2024-03-29T08:33:46;1.10;;;1.00;;
51714;SDS011;39115;59.332;18.034;2024-03-29T08:36:07;1.10;;;1.00;;
51714;SDS011;39115;59.332;18.034;2024-03-29T08:38:28;1.10;;;0.90;;
51714;SDS011;39115;59.332;18.034;2024-03-29T08:40:49;1.35;;;0.93;;
51714;SDS011;39115;59.332;18.034;2024-03-29T08:43:10;0.70;;;0.70;;
51714;SDS011;39115;59.332;18.034;2024-03-29T08:45:30;1.00;;;0.90;;
51714;SDS011;39115;59.332;18.034;2024-03-29T08:47:51;1.45;;;0.98;;
51714;SDS011;39115;59.332;18.034;2024-03-29T08:50:13;0.98;;;0.90;;
51714;SDS011;39115;59.332;18.034;2024-03-29T08:52:34;0.82;;;0.82;;
51714;SDS011;39115;59.332;18.034;2024-03-29T08:54:54;1.10;;;1.00;;
51714;SDS011;39115;59.332;18.034;2024-03-29T08:57:15;1.20;;;1.10;;
51714;SDS011;39115;59.332;18.034;2024-03-29T08:59:36;1.27;;;1.00;;
51714;SDS011;39115;59.332;18.034;2024-03-29T09:02:03;1.10;;;1.00;;
51714;SDS011;39115;59.332;18.034;2024-03-29T09:04:26;0.90;;;0.90;;
51714;SDS011;39115;59.332;18.034;2024-03-29T09:06:46;1.60;;;1.15;;
51714;SDS011;39115;59.332;18.034;2024-03-29T09:09:07;0.90;;;0.90;;
51714;SDS011;39115;59.332;18.034;2024-03-29T09:11:29;0.95;;;0.85;;
51714;SDS011;39115;59.332;18.034;2024-03-29T09:13:49;1.30;;;1.20;;
51714;SDS011;39115;59.332;18.034;2024-03-29T09:16:10;1.27;;;1.10;;
51714;SDS011;39115;59.332;18.034;2024-03-29T09:18:31;1.13;;;1.02;;
51714;SDS011;39115;59.332;18.034;2024-03-29T09:21:00;0.90;;;0.90;;
51714;SDS011;39115;59.332;18.034;2024-03-29T09:23:21;0.90;;;0.80;;
51714;SDS011;39115;59.332;18.034;2024-03-29T09:25:43;1.20;;;1.08;;
51714;SDS011;39115;59.332;18.034;2024-03-29T09:28:04;0.93;;;0.88;;
51714;SDS011;39115;59.332;18.034;2024-03-29T09:30:25;1.15;;;1.00;;
51714;SDS011;39115;59.332;18.034;2024-03-29T09:32:46;1.42;;;0.90;;
51714;SDS011;39115;59.332;18.034;2024-03-29T09:35:09;2.00;;;1.00;;
51714;SDS011;39115;59.332;18.034;2024-03-29T09:37:30;0.80;;;0.77;;
51714;SDS011;39115;59.332;18.034;2024-03-29T09:42:16;0.85;;;0.85;;
51714;SDS011;39115;59.332;18.034;2024-03-29T09:44:37;1.05;;;0.85;;
51714;SDS011;39115;59.332;18.034;2024-03-29T09:46:59;2.53;;;1.20;;
51714;SDS011;39115;59.332;18.034;2024-03-29T09:49:23;1.17;;;1.07;;
51714;SDS011;39115;59.332;18.034;2024-03-29T09:51:45;1.15;;;1.05;;
51714;SDS011;39115;59.332;18.034;2024-03-29T09:54:07;0.73;;;0.70;;
51714;SDS011;39115;59.332;18.034;2024-03-29T09:56:33;1.60;;;0.93;;
51714;SDS011;39115;59.332;18.034;2024-03-29T09:58:54;1.77;;;0.95;;
51714;SDS011;39115;59.332;18.034;2024-03-29T10:01:15;0.88;;;0.88;;
51714;SDS011;39115;59.332;18.034;2024-03-29T10:03:38;1.50;;;1.40;;
51714;SDS011;39115;59.332;18.034;2024-03-29T10:06:00;0.90;;;0.90;;
51714;SDS011;39115;59.332;18.034;2024-03-29T10:08:23;1.40;;;1.30;;
51714;SDS011;39115;59.332;18.034;2024-03-29T10:10:46;1.30;;;1.20;;
51714;SDS011;39115;59.332;18.034;2024-03-29T10:13:07;1.63;;;1.23;;
51714;SDS011;39115;59.332;18.034;2024-03-29T10:15:29;0.85;;;0.80;;
51714;SDS011;39115;59.332;18.034;2024-03-29T10:17:52;1.25;;;1.15;;
51714;SDS011;39115;59.332;18.034;2024-03-29T10:20:15;1.10;;;1.00;;
51714;SDS011;39115;59.332;18.034;2024-03-29T10:22:45;1.30;;;1.10;;
51714;SDS011;39115;59.332;18.034;2024-03-29T10:25:06;1.10;;;1.00;;
51714;SDS011;39115;59.332;18.034;2024-03-29T10:27:27;1.20;;;1.10;;
51714;SDS011;39115;59.332;18.034;2024-03-29T10:29:51;1.30;;;1.20;;
51714;SDS011;39115;59.332;18.034;2024-03-29T10:32:12;1.05;;;0.95;;
51714;SDS011;39115;59.332;18.034;2024-03-29T10:34:33;1.00;;;0.90;;
51714;SDS011;39115;59.332;18.034;2024-03-29T10:36:56;1.30;;;0.95;;
51714;SDS011;39115;59.332;18.034;2024-03-29T10:39:17;1.00;;;0.90;;
51714;SDS011;39115;59.332;18.034;2024-03-29T10:41:40;1.30;;;1.05;;
51714;SDS011;39115;59.332;18.034;2024-03-29T10:44:02;1.17;;;0.80;;
51714;SDS011;39115;59.332;18.034;2024-03-29T10:46:24;1.08;;;0.98;;
51714;SDS011;39115;59.332;18.034;2024-03-29T10:48:46;1.00;;;0.90;;
51714;SDS011;39115;59.332;18.034;2024-03-29T10:51:09;1.00;;;0.90;;
51714;SDS011;39115;59.332;18.034;2024-03-29T10:53:30;0.90;;;0.90;;
51714;SDS011;39115;59.332;18.034;2024-03-29T10:56:02;1.20;;;1.10;;
51714;SDS011;39115;59.332;18.034;2024-03-29T10:58:30;1.10;;;1.00;;
51714;SDS011;39115;59.332;18.034;2024-03-29T11:03:20;1.10;;;1.00;;
51714;SDS011;39115;59.332;18.034;2024-03-29T11:05:48;1.00;;;0.90;;
51714;SDS011;39115;59.332;18.034;2024-03-29T11:08:10;1.55;;;0.95;;
51714;SDS011;39115;59.332;18.034;2024-03-29T11:10:39;1.77;;;1.30;;
51714;SDS011;39115;59.332;18.034;2024-03-29T11:15:33;1.02;;;0.93;;
51714;SDS011;39115;59.332;18.034;2024-03-29T11:17:58;1.00;;;0.98;;
51714;SDS011;39115;59.332;18.034;2024-03-29T11:20:20;1.23;;;1.10;;
51714;SDS011;39115;59.332;18.034;2024-03-29T11:22:44;1.35;;;1.20;;
51714;SDS011;39115;59.332;18.034;2024-03-29T11:25:06;0.98;;;0.90;;
51714;SDS011;39115;59.332;18.034;2024-03-29T11:27:28;1.05;;;0.98;;
51714;SDS011;39115;59.332;18.034;2024-03-29T11:29:48;1.10;;;1.00;;
51714;SDS011;39115;59.332;18.034;2024-03-29T11:32:10;0.90;;;0.90;;
51714;SDS011;39115;59.332;18.034;2024-03-29T11:34:31;1.35;;;1.25;;
51714;SDS011;39115;59.332;18.034;2024-03-29T11:36:53;1.50;;;1.20;;
51714;SDS011;39115;59.332;18.034;2024-03-29T11:39:20;1.35;;;1.00;;
51714;SDS011;39115;59.332;18.034;2024-03-29T11:41:45;0.88;;;0.80;;
51714;SDS011;39115;59.332;18.034;2024-03-29T11:44:07;1.10;;;1.00;;
51714;SDS011;39115;59.332;18.034;2024-03-29T11:46:28;1.20;;;1.08;;
51714;SDS011;39115;59.332;18.034;2024-03-29T11:48:53;0.70;;;0.70;;
51714;SDS011;39115;59.332;18.034;2024-03-29T11:51:15;1.55;;;1.45;;
51714;SDS011;39115;59.332;18.034;2024-03-29T11:53:38;1.15;;;0.93;;
51714;SDS011;39115;59.332;18.034;2024-03-29T11:56:00;0.85;;;0.73;;
51714;SDS011;39115;59.332;18.034;2024-03-29T11:58:22;1.25;;;1.00;;
51714;SDS011;39115;59.332;18.034;2024-03-29T12:00:43;1.20;;;1.10;;
51714;SDS011;39115;59.332;18.034;2024-03-29T12:03:05;1.35;;;1.00;;
51714;SDS011;39115;59.332;18.034;2024-03-29T12:05:27;1.00;;;0.85;;
51714;SDS011;39115;59.332;18.034;2024-03-29T12:07:48;1.27;;;1.17;;
51714;SDS011;39115;59.332;18.034;2024-03-29T12:10:09;1.08;;;0.98;;
51714;SDS011;39115;59.332;18.034;2024-03-29T12:12:30;1.42;;;1.33;;
51714;SDS011;39115;59.332;18.034;2024-03-29T12:14:55;1.08;;;0.98;;
51714;SDS011;39115;59.332;18.034;2024-03-29T12:17:16;1.20;;;1.10;;
51714;SDS011;39115;59.332;18.034;2024-03-29T12:19:37;1.10;;;1.00;;
51714;SDS011;39115;59.332;18.034;2024-03-29T12:22:02;1.05;;;0.95;;
51714;SDS011;39115;59.332;18.034;2024-03-29T12:24:23;1.30;;;1.20;;
51714;SDS011;39115;59.332;18.034;2024-03-29T12:26:43;1.10;;;0.98;;
51714;SDS011;39115;59.332;18.034;2024-03-29T12:29:04;0.90;;;0.90;;
51714;SDS011;39115;59.332;18.034;2024-03-29T12:31:25;0.88;;;0.82;;
51714;SDS011;39115;59.332;18.034;2024-03-29T12:33:52;1.10;;;1.00;;
51714;SDS011;39115;59.332;18.034;2024-03-29T12:36:13;1.00;;;0.90;;
51714;SDS011;39115;59.332;18.034;2024-03-29T12:38:35;1.10;;;0.95;;
51714;SDS011;39115;59.332;18.034;2024-03-29T12:40:57;0.80;;;0.77;;
51714;SDS011;39115;59.332;18.034;2024-03-29T12:43:19;1.27;;;1.17;;
51714;SDS011;39115;59.332;18.034;2024-03-29T12:45:42;1.33;;;1.20;;
51714;SDS011;39115;59.332;18.034;2024-03-29T12:48:03;1.10;;;0.80;;
51714;SDS011;39115;59.332;18.034;2024-03-29T12:50:35;0.93;;;0.80;;
51714;SDS011;39115;59.332;18.034;2024-03-29T12:52:56;1.00;;;0.80;;
51714;SDS011;39115;59.332;18.034;2024-03-29T12:55:18;1.17;;;1.08;;
51714;SDS011;39115;59.332;18.034;2024-03-29T12:57:39;1.15;;;1.05;;
51714;SDS011;39115;59.332;18.034;2024-03-29T13:00:03;1.30;;;0.90;;
51714;SDS011;39115;59.332;18.034;2024-03-29T13:02:29;0.98;;;0.98;;
51714;SDS011;39115;59.332;18.034;2024-03-29T13:04:49;0.77;;;0.77;;
51714;SDS011;39115;59.332;18.034;2024-03-29T13:07:11;0.85;;;0.85;;
51714;SDS011;39115;59.332;18.034;2024-03-29T13:09:34;1.25;;;1.15;;
51714;SDS011;39115;59.332;18.034;2024-03-29T13:11:54;1.02;;;0.98;;
51714;SDS011;39115;59.332;18.034;2024-03-29T13:14:15;1.08;;;0.98;;
51714;SDS011;39115;59.332;18.034;2024-03-29T13:16:36;1.00;;;0.90;;
51714;SDS011;39115;59.332;18.034;2024-03-29T13:18:57;1.00;;;0.95;;
51714;SDS011;39115;59.332;18.034;2024-03-29T13:21:18;1.00;;;0.88;;
51714;SDS011;39115;59.332;18.034;2024-03-29T13:23:38;1.05;;;0.95;;
51714;SDS011;39115;59.332;18.034;2024-03-29T13:25:59;0.73;;;0.73;;
51714;SDS011;39115;59.332;18.034;2024-03-29T13:28:20;0.80;;;0.80;;
51714;SDS011;39115;59.332;18.034;2024-03-29T13:30:41;1.45;;;0.80;;
51714;SDS011;39115;59.332;18.034;2024-03-29T13:33:05;1.05;;;0.80;;
51714;SDS011;39115;59.332;18.034;2024-03-29T13:35:26;0.60;;;0.60;;
51714;SDS011;39115;59.332;18.034;2024-03-29T13:37:47;1.15;;;1.05;;
51714;SDS011;39115;59.332;18.034;2024-03-29T13:40:09;0.68;;;0.68;;
51714;SDS011;39115;59.332;18.034;2024-03-29T13:42:30;0.70;;;0.70;;
51714;SDS011;39115;59.332;18.034;2024-03-29T13:44:52;0.77;;;0.77;;
51714;SDS011;39115;59.332;18.034;2024-03-29T13:47:13;1.17;;;0.90;;
51714;SDS011;39115;59.332;18.034;2024-03-29T13:49:36;0.70;;;0.63;;
51714;SDS011;39115;59.332;18.034;2024-03-29T13:51:57;0.98;;;0.80;;
51714;SDS011;39115;59.332;18.034;2024-03-29T13:54:17;1.00;;;0.80;;
51714;SDS011;39115;59.332;18.034;2024-03-29T13:56:38;0.82;;;0.82;;
51714;SDS011;39115;59.332;18.034;2024-03-29T13:58:58;0.82;;;0.82;;
51714;SDS011;39115;59.332;18.034;2024-03-29T14:01:19;0.80;;;0.80;;
51714;SDS011;39115;59.332;18.034;2024-03-29T14:03:40;1.23;;;0.95;;
51714;SDS011;39115;59.332;18.034;2024-03-29T14:06:00;1.00;;;0.80;;